Time;durP1;ratioP1;P1;durP2;ratioP2;P2;SDS_P1;SDS_P2;PMS_P1;PMS_P2;Temp;Humidity;BMP_temperature;BMP_pressure;BME280_temperature;BME280_humidity;BME280_pressure;Samples;Min_cycle;Max_cycle;Signal;HPM_P1;HPM_P2
2022/09/14 00:01:19;;;;;;;3.00;1.85;;;18.20;55.90;;;;;;6245539;23;20529;-86
2022/09/14 00:04:16;;;;;;;7.38;2.10;;;18.30;56.90;;;;;;6245503;23;20031;-85
2022/09/14 00:07:05;;;;;;;6.85;2.22;;;18.30;83.10;;;;;;6245744;23;20095;-86
2022/09/14 00:09:52;;;;;;;3.45;2.00;;;18.30;93.80;;;;;;6245701;23;20319;-86
2022/09/14 00:12:40;;;;;;;3.47;1.70;;;18.30;98.30;;;;;;6224664;23;20098;-85
2022/09/14 00:15:29;;;;;;;5.82;2.05;;;18.30;99.90;;;;;;6244851;23;20020;-85
2022/09/14 00:18:16;;;;;;;4.50;2.28;;;18.30;99.90;;;;;;6246416;23;20035;-85
2022/09/14 00:21:08;;;;;;;4.25;1.90;;;18.30;99.90;;;;;;6246556;23;20034;-86
2022/09/14 00:23:55;;;;;;;7.10;2.78;;;18.30;99.90;;;;;;6246710;23;20024;-85
2022/09/14 00:26:44;;;;;;;2.88;1.85;;;18.20;99.90;;;;;;6246564;23;20077;-87
2022/09/14 00:29:32;;;;;;;2.78;2.00;;;18.20;99.90;;;;;;6226316;23;20034;-85
2022/09/14 00:32:22;;;;;;;3.80;2.70;;;18.20;99.90;;;;;;6247490;23;20024;-86
2022/09/14 00:35:09;;;;;;;5.80;2.20;;;18.10;99.90;;;;;;6244861;23;20028;-85
2022/09/14 00:37:56;;;;;;;4.18;2.22;;;18.00;99.90;;;;;;6245824;23;20098;-86
2022/09/14 00:40:44;;;;;;;4.03;2.17;;;18.00;99.90;;;;;;6249071;22;20307;-86
2022/09/14 00:43:32;;;;;;;4.03;2.30;;;17.90;99.90;;;;;;6247670;23;20090;-86
2022/09/14 00:46:22;;;;;;;3.35;2.47;;;17.90;99.90;;;;;;6245995;23;20410;-86
2022/09/14 00:49:24;;;;;;;2.70;2.08;;;17.90;99.90;;;;;;6247433;23;20024;-85
2022/09/14 00:52:20;;;;;;;5.65;2.38;;;17.90;99.90;;;;;;6237581;23;20056;-86
2022/09/14 00:55:19;;;;;;;4.53;1.98;;;17.80;99.90;;;;;;6228132;23;20024;-86
2022/09/14 00:58:06;;;;;;;5.05;2.10;;;17.90;99.90;;;;;;6229115;23;20052;-86
2022/09/14 01:01:00;;;;;;;5.63;2.03;;;17.80;99.90;;;;;;6252268;23;20020;-86
2022/09/14 01:03:50;;;;;;;3.95;2.33;;;17.70;99.90;;;;;;6246102;23;20331;-85
2022/09/14 01:07:00;;;;;;;6.47;2.38;;;17.70;99.90;;;;;;6246343;23;20035;-86
2022/09/14 01:09:54;;;;;;;5.78;2.63;;;17.70;99.90;;;;;;6224864;23;20024;-86
2022/09/14 01:12:47;;;;;;;7.10;3.10;;;17.80;99.90;;;;;;6246570;23;20032;-85
2022/09/14 01:16:03;;;;;;;9.45;3.83;;;17.80;99.90;;;;;;6247305;23;20024;-89
2022/09/14 01:18:57;;;;;;;15.05;4.30;;;17.60;99.90;;;;;;6245426;23;20025;-84
2022/09/14 01:21:45;;;;;;;8.52;3.78;;;17.30;99.90;;;;;;6248431;23;20028;-83
2022/09/14 01:24:47;;;;;;;11.35;4.40;;;17.20;99.90;;;;;;6226760;23;20030;-85
2022/09/14 01:27:40;;;;;;;10.82;4.47;;;17.10;1.00;;;;;;6245440;23;20051;-85
2022/09/14 01:30:31;;;;;;;10.25;4.82;;;17.00;99.90;;;;;;6224184;23;20031;-85
2022/09/14 01:33:24;;;;;;;10.57;5.00;;;16.90;99.90;;;;;;6248016;23;20028;-85
2022/09/14 01:36:13;;;;;;;12.07;4.97;;;16.90;77.20;;;;;;6247876;23;20031;-85
2022/09/14 01:39:01;;;;;;;12.73;5.13;;;16.80;99.90;;;;;;6246582;23;20416;-85
2022/09/14 01:41:51;;;;;;;14.75;5.15;;;16.80;99.90;;;;;;6245062;23;20051;-84
2022/09/14 01:44:44;;;;;;;11.60;4.32;;;16.80;99.90;;;;;;6247955;23;20020;-85
2022/09/14 01:48:02;;;;;;;9.57;4.28;;;16.80;99.90;;;;;;6245708;23;20090;-85
2022/09/14 01:50:53;;;;;;;13.05;4.55;;;16.90;1.00;;;;;;6241295;23;20028;-84
2022/09/14 01:53:47;;;;;;;8.88;4.65;;;16.90;1.00;;;;;;6226092;23;20163;-84
2022/09/14 01:56:40;;;;;;;8.35;4.03;;;16.90;1.00;;;;;;6245104;23;20145;-83
2022/09/14 01:59:30;;;;;;;;;;;16.90;1.00;;;;;;6247971;23;20058;-82
2022/09/14 02:02:31;;;;;;;7.03;4.05;;;16.90;99.90;;;;;;6247484;23;19915;-82
2022/09/14 02:05:31;;;;;;;6.25;4.32;;;17.00;99.90;;;;;;6226481;23;20032;-83
2022/09/14 02:08:18;;;;;;;9.98;4.85;;;17.00;99.90;;;;;;6244601;23;20035;-83
2022/09/14 02:11:06;;;;;;;5.60;4.43;;;17.00;99.90;;;;;;6224605;23;20039;-83
2022/09/14 02:13:56;;;;;;;5.88;4.40;;;17.00;99.90;;;;;;6245451;23;20035;-83
2022/09/14 02:16:44;;;;;;;6.80;3.42;;;17.00;99.90;;;;;;6246331;23;20038;-83
2022/09/14 02:19:40;;;;;;;8.63;3.95;;;17.00;99.90;;;;;;6245718;23;20059;-83
2022/09/14 02:22:31;;;;;;;5.20;3.80;;;16.90;1.00;;;;;;6246258;23;20099;-84
2022/09/14 02:25:19;;;;;;;6.68;4.55;;;16.90;99.90;;;;;;6224071;23;20020;-83
2022/09/14 02:28:07;;;;;;;6.63;4.38;;;16.90;1.00;;;;;;6246175;23;20056;-84
2022/09/14 02:31:16;;;;;;;7.38;4.38;;;16.90;99.90;;;;;;6244567;22;20106;-84
2022/09/14 02:34:12;;;;;;;9.60;4.80;;;16.90;99.90;;;;;;6243146;23;20024;-85
2022/09/14 02:37:15;;;;;;;9.75;5.90;;;16.90;1.00;;;;;;6223724;23;20028;-86
2022/09/14 02:40:02;;;;;;;9.10;5.32;;;16.80;1.00;;;;;;6243703;23;20364;-86
2022/09/14 02:43:33;;;;;;;8.57;5.03;;;16.80;99.90;;;;;;6223799;23;20024;-84
2022/09/14 02:46:43;;;;;;;7.32;5.55;;;16.80;1.00;;;;;;6235746;23;20020;-85
2022/09/14 02:49:49;;;;;;;9.45;7.13;;;16.80;99.90;;;;;;6223489;23;20110;-83
2022/09/14 02:53:05;;;;;;;9.90;6.10;;;16.90;99.90;;;;;;6246778;23;20312;-83
2022/09/14 02:56:08;;;;;;;8.93;6.78;;;16.90;99.90;;;;;;6222697;23;20092;-83
2022/09/14 02:58:55;;;;;;;9.18;6.20;;;16.80;99.90;;;;;;6245766;23;20111;-84
2022/09/14 03:01:42;;;;;;;9.70;6.07;;;16.80;99.90;;;;;;6245772;23;20035;-84
2022/09/14 03:04:30;;;;;;;12.13;7.28;;;16.80;1.00;;;;;;6245140;23;20046;-85
2022/09/14 03:07:17;;;;;;;10.48;6.95;;;16.80;1.00;;;;;;6243423;23;20035;-84
2022/09/14 03:10:04;;;;;;;17.80;7.60;;;16.80;1.00;;;;;;6226187;23;20119;-83
2022/09/14 03:12:52;;;;;;;23.40;7.93;;;16.80;1.00;;;;;;6245873;23;20491;-84
2022/09/14 03:15:39;;;;;;;11.82;7.72;;;16.80;1.00;;;;;;6245519;23;20024;-84
2022/09/14 03:18:26;;;;;;;11.20;7.40;;;16.80;1.00;;;;;;6247034;23;20035;-84
2022/09/14 03:21:17;;;;;;;14.85;8.30;;;16.70;1.00;;;;;;6245654;23;20074;-84
2022/09/14 03:24:04;;;;;;;12.88;8.07;;;16.70;1.00;;;;;;6225096;23;20051;-84
2022/09/14 03:26:51;;;;;;;18.90;11.82;;;16.70;1.00;;;;;;6244514;23;20034;-84
2022/09/14 03:29:38;;;;;;;13.35;8.63;;;16.70;1.00;;;;;;6244869;23;20451;-84
2022/09/14 03:32:25;;;;;;;11.18;8.13;;;16.70;3.80;;;;;;6246350;23;20110;-84
2022/09/14 03:35:13;;;;;;;12.05;8.38;;;16.60;11.40;;;;;;6243545;23;20034;-85
2022/09/14 03:38:01;;;;;;;11.98;8.98;;;16.60;20.80;;;;;;6226134;23;20036;-84
2022/09/14 03:40:52;;;;;;;12.18;8.50;;;16.70;38.70;;;;;;6244581;23;20440;-84
2022/09/14 03:43:40;;;;;;;13.20;9.70;;;16.60;45.70;;;;;;6245503;23;20404;-84
2022/09/14 03:46:29;;;;;;;15.60;10.20;;;16.60;57.20;;;;;;6244944;23;20024;-83
2022/09/14 03:49:16;;;;;;;16.98;11.55;;;16.60;65.40;;;;;;6224006;23;20020;-85
2022/09/14 03:52:03;;;;;;;16.38;11.73;;;16.70;76.00;;;;;;6247879;23;20108;-85
2022/09/14 03:54:51;;;;;;;16.85;11.60;;;16.70;83.80;;;;;;6227808;23;20035;-85
2022/09/14 03:57:40;;;;;;;18.58;11.43;;;16.70;92.60;;;;;;6225785;23;20101;-84
2022/09/14 04:00:31;;;;;;;13.95;10.48;;;16.80;99.90;;;;;;6227805;23;20393;-84
2022/09/14 04:03:20;;;;;;;14.27;11.20;;;16.80;99.90;;;;;;6225875;23;20023;-84
2022/09/14 04:06:08;;;;;;;16.50;11.30;;;16.90;99.90;;;;;;6247560;23;20024;-84
2022/09/14 04:08:55;;;;;;;15.38;11.90;;;16.90;99.90;;;;;;6225541;23;20091;-84
2022/09/14 04:11:43;;;;;;;19.15;11.77;;;16.90;99.90;;;;;;6225262;23;20103;-83
2022/09/14 04:14:30;;;;;;;12.95;9.85;;;16.90;99.90;;;;;;6247380;23;20111;-83
2022/09/14 04:17:19;;;;;;;15.98;11.60;;;16.90;99.90;;;;;;6246368;23;20039;-83
2022/09/14 04:20:07;;;;;;;17.98;11.82;;;16.80;99.90;;;;;;6228601;23;20131;-84
2022/09/14 04:22:54;;;;;;;16.13;13.40;;;16.90;99.90;;;;;;6247138;23;20284;-84
2022/09/14 04:25:41;;;;;;;16.80;12.30;;;16.90;99.90;;;;;;6249089;23;20323;-84
2022/09/14 04:28:31;;;;;;;19.05;12.80;;;16.90;99.90;;;;;;6245721;23;20035;-83
2022/09/14 04:31:18;;;;;;;16.90;12.18;;;17.00;99.90;;;;;;6227009;23;20034;-82
2022/09/14 04:34:06;;;;;;;17.13;11.85;;;17.10;99.90;;;;;;6246795;23;20420;-81
2022/09/14 04:36:53;;;;;;;17.17;12.63;;;17.10;99.90;;;;;;6247168;23;20099;-82
2022/09/14 04:39:42;;;;;;;19.30;12.35;;;17.10;99.90;;;;;;6249848;22;20030;-81
2022/09/14 04:42:32;;;;;;;14.82;11.15;;;17.10;99.90;;;;;;6246988;23;20024;-80
2022/09/14 04:45:20;;;;;;;14.68;10.98;;;17.20;99.90;;;;;;6247029;23;20024;-81
2022/09/14 04:48:07;;;;;;;16.15;10.18;;;17.20;99.60;;;;;;6246229;23;20110;-82
2022/09/14 04:51:06;;;;;;;14.65;10.25;;;17.20;81.00;;;;;;6245999;23;20095;-81
2022/09/14 04:53:55;;;;;;;15.05;10.52;;;17.20;64.00;;;;;;6246928;23;20052;-81
2022/09/14 04:56:45;;;;;;;13.73;10.18;;;17.20;64.70;;;;;;6249156;22;20028;-81
2022/09/14 04:59:32;;;;;;;24.08;10.98;;;17.30;50.10;;;;;;6246829;23;20039;-81
2022/09/14 05:02:19;;;;;;;12.48;10.38;;;17.30;45.90;;;;;;6248384;22;20114;-82
2022/09/14 05:05:07;;;;;;;12.52;9.57;;;17.30;36.30;;;;;;6248166;22;20434;-81
2022/09/14 05:07:54;;;;;;;17.05;10.43;;;17.30;17.60;;;;;;6225823;23;20020;-82
2022/09/14 05:10:41;;;;;;;14.82;10.25;;;17.30;1.20;;;;;;6245692;23;20034;-81
2022/09/14 05:13:28;;;;;;;13.05;9.13;;;17.40;1.00;;;;;;6247219;23;20034;-85
2022/09/14 05:16:24;;;;;;;17.88;9.77;;;17.40;1.00;;;;;;6246451;23;20035;-85
2022/09/14 05:19:14;;;;;;;14.30;9.93;;;17.40;1.00;;;;;;6248266;23;20028;-85
2022/09/14 05:22:02;;;;;;;15.65;10.25;;;17.50;1.00;;;;;;6247278;23;20024;-83
2022/09/14 05:24:49;;;;;;;20.77;9.77;;;17.50;1.00;;;;;;6226483;23;20091;-82
2022/09/14 05:27:36;;;;;;;13.60;10.10;;;17.50;1.00;;;;;;6244799;23;20110;-83
2022/09/14 05:30:25;;;;;;;19.45;9.90;;;17.50;1.00;;;;;;6246606;23;20028;-83
2022/09/14 05:33:12;;;;;;;14.52;10.10;;;17.60;1.00;;;;;;6245335;23;20312;-84
2022/09/14 05:36:02;;;;;;;14.50;9.55;;;17.60;1.00;;;;;;6223555;23;20434;-84
2022/09/14 05:38:49;;;;;;;15.07;9.52;;;17.60;1.00;;;;;;6247383;23;20024;-84
2022/09/14 05:41:38;;;;;;;13.40;9.00;;;17.60;1.00;;;;;;6245350;23;20056;-86
2022/09/14 05:44:26;;;;;;;12.75;9.25;;;17.70;1.00;;;;;;6247736;23;20020;-84
2022/09/14 05:47:13;;;;;;;15.98;8.75;;;17.70;99.90;;;;;;6247139;23;20034;-84
2022/09/14 05:50:00;;;;;;;13.43;7.95;;;17.80;99.90;;;;;;6248725;23;20083;-86
2022/09/14 05:52:47;;;;;;;17.73;7.90;;;17.80;99.90;;;;;;6204575;23;20126;-85
2022/09/14 05:55:35;;;;;;;15.20;7.60;;;17.90;1.00;;;;;;6244633;23;20028;-87
2022/09/14 05:58:22;;;;;;;10.52;8.48;;;17.90;1.00;;;;;;6245963;23;20050;-89
2022/09/14 06:01:15;;;;;;;10.25;7.45;;;17.90;1.00;;;;;;6259913;23;20035;-90
2022/09/14 06:04:03;;;;;;;13.65;8.55;;;18.00;99.90;;;;;;6239496;23;20047;-91
2022/09/14 06:06:51;;;;;;;9.52;7.90;;;18.00;1.00;;;;;;6262825;23;20036;-89
2022/09/14 06:10:01;;;;;;;10.30;7.32;;;18.00;1.00;;;;;;6265865;22;20035;-90
2022/09/14 06:13:11;;;;;;;12.57;6.88;;;18.10;99.90;;;;;;6263814;23;20118;-90
2022/09/14 06:16:48;;;;;;;11.27;7.15;;;18.20;99.90;;;;;;6223527;22;20019;-87
2022/09/14 06:19:57;;;;;;;15.48;7.43;;;18.20;99.90;;;;;;6270023;22;20020;-85
2022/09/14 06:22:50;;;;;;;9.85;6.70;;;18.20;99.90;;;;;;6269455;22;20012;-86
2022/09/14 06:25:38;;;;;;;8.63;6.47;;;18.30;1.00;;;;;;6265306;23;20080;-87
2022/09/14 06:28:27;;;;;;;8.80;5.88;;;18.40;99.90;;;;;;6241173;23;20054;-85
2022/09/14 06:31:24;;;;;;;7.85;5.90;;;18.40;99.90;;;;;;6262596;23;20328;-86
2022/09/14 06:34:12;;;;;;;10.13;5.50;;;18.50;99.90;;;;;;6254911;23;20024;-85
2022/09/14 06:37:05;;;;;;;8.73;5.95;;;18.50;1.00;;;;;;6249187;23;20024;-88
2022/09/14 06:39:53;;;;;;;9.07;5.78;;;18.60;1.00;;;;;;6229394;23;20090;-90
2022/09/14 06:42:43;;;;;;;6.80;5.15;;;18.60;99.90;;;;;;6252534;23;20296;-89
2022/09/14 06:45:33;;;;;;;9.05;5.50;;;18.70;1.00;;;;;;6226766;23;20047;-88
2022/09/14 06:48:20;;;;;;;10.55;4.95;;;18.80;1.00;;;;;;6228317;23;20020;-88
2022/09/14 06:51:39;;;;;;;5.40;4.60;;;18.80;99.90;;;;;;6228248;23;20112;-88
2022/09/14 06:54:27;;;;;;;8.13;5.60;;;18.90;99.90;;;;;;6251616;23;20024;-89
2022/09/14 06:57:14;;;;;;;8.35;5.32;;;18.90;99.90;;;;;;6224229;23;20071;-88
2022/09/14 07:00:35;;;;;;;10.38;5.78;;;19.00;69.80;;;;;;6228195;23;20445;-86
2022/09/14 07:03:22;;;;;;;10.40;5.45;;;19.00;1.00;;;;;;6227205;23;20034;-89
2022/09/14 07:06:12;;;;;;;8.82;5.10;;;19.10;1.00;;;;;;6224943;23;20025;-87
2022/09/14 07:09:05;;;;;;;12.90;5.63;;;19.00;1.00;;;;;;6226212;23;20028;-85
2022/09/14 07:11:54;;;;;;;7.65;4.90;;;19.10;1.00;;;;;;6247191;23;20028;-86
2022/09/14 07:14:41;;;;;;;7.45;4.90;;;19.20;99.90;;;;;;6245946;23;20154;-86
2022/09/14 07:17:28;;;;;;;6.82;4.28;;;19.30;99.90;;;;;;6224440;23;20404;-86
2022/09/14 07:20:18;;;;;;;6.35;4.78;;;19.40;99.90;;;;;;6245392;23;20098;-85
2022/09/14 07:23:08;;;;;;;4.90;4.28;;;19.50;99.90;;;;;;6244824;23;20024;-85
2022/09/14 07:26:07;;;;;;;9.60;4.00;;;19.50;99.90;;;;;;6225543;23;20158;-87
2022/09/14 07:29:00;;;;;;;5.90;3.97;;;19.70;94.30;;;;;;6243960;23;20034;-88
2022/09/14 07:31:51;;;;;;;6.95;3.97;;;19.70;1.00;;;;;;6245146;23;20279;-87
2022/09/14 07:34:38;;;;;;;4.75;3.40;;;19.80;1.00;;;;;;6223590;23;20027;-87
2022/09/14 07:37:25;;;;;;;6.95;3.72;;;19.90;1.00;;;;;;6245778;23;20103;-87
2022/09/14 07:40:13;;;;;;;4.65;3.58;;;20.10;99.90;;;;;;6224660;23;20086;-86
2022/09/14 07:43:00;;;;;;;7.55;3.75;;;20.10;99.90;;;;;;6244069;23;20495;-87
2022/09/14 07:45:51;;;;;;;6.82;3.28;;;20.30;99.90;;;;;;6245504;23;20020;-87
2022/09/14 07:48:39;;;;;;;7.88;3.90;;;20.60;99.90;;;;;;6247738;23;20083;-87
2022/09/14 07:51:27;;;;;;;8.55;3.80;;;20.70;99.90;;;;;;6223804;23;20043;-85
2022/09/14 07:54:16;;;;;;;8.95;3.20;;;20.80;99.90;;;;;;6244532;23;20119;-85
2022/09/14 07:57:04;;;;;;;3.90;2.80;;;21.00;99.90;;;;;;6243350;23;20106;-85
2022/09/14 07:59:52;;;;;;;4.65;2.50;;;21.20;9.50;;;;;;6245841;23;20042;-87
2022/09/14 08:02:39;;;;;;;4.65;2.40;;;21.40;1.00;;;;;;6245143;23;20107;-85
2022/09/14 08:05:27;;;;;;;5.75;3.03;;;21.30;1.00;;;;;;6244215;23;20020;-85
2022/09/14 08:08:15;;;;;;;6.80;2.60;;;21.40;1.00;;;;;;6224235;23;20098;-85
2022/09/14 08:11:16;;;;;;;4.82;3.17;;;21.50;1.00;;;;;;6245833;23;20055;-87
2022/09/14 08:14:08;;;;;;;10.55;3.78;;;21.40;1.00;;;;;;6225332;23;20028;-87
2022/09/14 08:16:56;;;;;;;5.00;2.92;;;21.30;1.00;;;;;;6223131;23;20377;-85
2022/09/14 08:19:45;;;;;;;3.30;2.33;;;21.40;1.00;;;;;;6245296;23;20087;-87
2022/09/14 08:22:33;;;;;;;4.70;2.63;;;21.50;1.00;;;;;;6244908;23;20030;-86
2022/09/14 08:25:20;;;;;;;5.47;2.72;;;21.60;1.00;;;;;;6243945;23;20034;-86
2022/09/14 08:28:09;;;;;;;5.25;2.50;;;21.80;1.00;;;;;;6222155;23;20047;-85
2022/09/14 08:31:11;;;;;;;7.25;2.88;;;21.90;1.00;;;;;;6242491;23;20021;-86
2022/09/14 08:34:02;;;;;;;3.90;2.50;;;21.80;1.00;;;;;;6222292;23;20072;-86
2022/09/14 08:36:49;;;;;;;5.03;3.50;;;21.60;1.00;;;;;;6244542;23;20070;-88
2022/09/14 08:39:36;;;;;;;5.00;2.83;;;21.30;1.00;;;;;;6248342;23;20055;-88
2022/09/14 08:42:24;;;;;;;4.85;2.95;;;21.10;1.00;;;;;;6245670;23;20052;-87
2022/09/14 08:45:15;;;;;;;4.40;2.55;;;21.00;1.00;;;;;;6246554;23;20392;-86
2022/09/14 08:48:06;;;;;;;5.50;2.70;;;21.10;1.00;;;;;;6248438;23;20118;-85
2022/09/14 08:50:53;;;;;;;4.90;2.70;;;21.40;1.00;;;;;;6226835;23;20087;-86
2022/09/14 08:53:42;;;;;;;6.60;2.40;;;21.80;1.00;;;;;;6246970;23;20082;-85
2022/09/14 08:56:35;;;;;;;6.82;2.40;;;21.90;99.90;;;;;;6224230;23;20063;-86
2022/09/14 08:59:56;;;;;;;5.80;2.70;;;22.30;99.90;;;;;;6248088;23;20024;-87
2022/09/14 09:03:09;;;;;;;3.78;2.08;;;22.60;99.90;;;;;;6235059;23;20375;-85
2022/09/14 09:06:02;;;;;;;2.90;2.33;;;23.30;99.90;;;;;;6257062;23;20031;-83
2022/09/14 09:09:05;;;;;;;5.45;2.30;;;24.30;99.90;;;;;;6246890;23;20107;-84
2022/09/14 09:11:54;;;;;;;6.78;1.98;;;25.00;99.90;;;;;;6262124;23;20304;-85
2022/09/14 09:14:54;;;;;;;4.47;1.90;;;25.40;99.90;;;;;;6249638;23;20028;-85
2022/09/14 09:17:46;;;;;;;5.15;1.88;;;25.60;99.90;;;;;;6250732;23;20024;-84
2022/09/14 09:20:49;;;;;;;3.55;1.85;;;25.90;99.90;;;;;;6247460;23;20319;-83
2022/09/14 09:23:36;;;;;;;2.65;1.65;;;26.00;99.90;;;;;;6249955;22;20024;-85
2022/09/14 09:26:32;;;;;;;5.50;1.80;;;26.70;99.90;;;;;;6247451;23;20110;-85
2022/09/14 09:29:20;;;;;;;5.35;1.55;;;27.00;97.40;;;;;;6224819;23;20341;-87
2022/09/14 09:32:14;;;;;;;4.60;2.10;;;27.00;89.50;;;;;;6246777;23;20020;-86
2022/09/14 09:35:06;;;;;;;4.25;1.75;;;26.60;71.80;;;;;;6247796;23;20025;-85
2022/09/14 09:37:56;;;;;;;4.15;1.70;;;26.10;70.10;;;;;;6247259;23;20197;-84
2022/09/14 09:40:48;;;;;;;4.97;2.03;;;24.70;94.80;;;;;;6246367;23;20095;-87
2022/09/14 09:43:57;;;;;;;4.88;2.53;;;24.40;99.90;;;;;;6247364;23;20032;-85
2022/09/14 09:46:51;;;;;;;3.95;2.15;;;24.90;99.90;;;;;;6243839;23;20024;-85
2022/09/14 09:49:39;;;;;;;4.15;2.03;;;24.80;99.90;;;;;;6225539;23;20071;-85
2022/09/14 09:52:27;;;;;;;5.70;1.98;;;24.40;99.90;;;;;;6222295;23;20020;-87
2022/09/14 09:55:20;;;;;;;8.02;2.25;;;24.50;99.90;;;;;;6224467;23;20427;-85
2022/09/14 09:58:29;;;;;;;4.38;1.58;;;25.70;99.90;;;;;;6246989;23;20028;-85
2022/09/14 10:01:31;;;;;;;5.38;2.00;;;25.90;90.70;;;;;;6248084;23;20388;-84
2022/09/14 10:04:27;;;;;;;5.20;2.05;;;25.50;94.10;;;;;;6247231;23;20103;-85
2022/09/14 10:07:22;;;;;;;2.75;1.88;;;25.10;99.40;;;;;;6249664;23;20371;-86
2022/09/14 10:10:12;;;;;;;6.93;2.22;;;25.30;92.80;;;;;;6225140;23;20114;-85
2022/09/14 10:13:02;;;;;;;5.90;2.10;;;24.90;87.00;;;;;;6246826;23;20024;-83
2022/09/14 10:15:49;;;;;;;4.57;1.70;;;25.00;98.10;;;;;;6245865;23;20032;-85
2022/09/14 10:18:47;;;;;;;5.72;2.03;;;24.70;91.10;;;;;;6224978;23;20042;-86
2022/09/14 10:21:37;;;;;;;4.95;2.40;;;23.90;99.90;;;;;;6247193;23;20031;-83
2022/09/14 10:24:24;;;;;;;6.57;2.55;;;23.50;99.90;;;;;;6247265;23;20095;-84
2022/09/14 10:27:31;;;;;;;6.97;2.75;;;23.50;99.90;;;;;;6247126;23;20099;-83
2022/09/14 10:30:39;;;;;;;3.97;2.00;;;23.50;99.90;;;;;;6247079;23;20020;-85
2022/09/14 10:33:26;;;;;;;4.47;2.13;;;23.50;99.90;;;;;;6247118;23;20052;-85
2022/09/14 10:36:28;;;;;;;4.90;2.13;;;23.90;99.90;;;;;;6244261;23;20032;-88
2022/09/14 10:39:18;;;;;;;8.00;2.33;;;24.40;99.90;;;;;;6245117;23;20379;-86
2022/09/14 10:42:27;;;;;;;4.88;2.30;;;24.50;99.90;;;;;;6234225;23;20043;-86
2022/09/14 10:45:30;;;;;;;5.57;3.90;;;24.50;99.90;;;;;;6247530;23;20098;-86
2022/09/14 10:48:53;;;;;;;5.30;1.90;;;24.60;99.90;;;;;;6245483;23;20042;-85
2022/09/14 10:51:40;;;;;;;;;;;24.60;93.40;;;;;;6245782;23;20109;-84
2022/09/14 10:54:59;;;;;;;3.83;1.38;;;25.00;71.20;;;;;;6247813;22;19919;-85
2022/09/14 10:58:00;;;;;;;7.22;1.73;;;25.40;44.10;;;;;;6123039;23;20022;-87
2022/09/14 11:00:55;;;;;;;4.28;1.40;;;25.60;41.60;;;;;;6186234;23;20024;-86
2022/09/14 11:04:07;;;;;;;4.00;1.58;;;26.10;22.20;;;;;;6225376;23;20035;-86
2022/09/14 11:07:16;;;;;;;2.47;1.33;;;26.40;8.60;;;;;;6249012;23;20032;-88
2022/09/14 11:10:27;;;;;;;1.98;1.10;;;26.70;1.00;;;;;;6226861;23;20054;-89
2022/09/14 11:13:25;;;;;;;3.53;1.67;;;26.80;1.00;;;;;;6245070;23;20091;-85
2022/09/14 11:16:28;;;;;;;2.55;1.17;;;27.10;1.00;;;;;;6225667;23;20059;-85
2022/09/14 11:19:34;;;;;;;2.53;1.50;;;27.00;1.00;;;;;;6244310;23;20118;-84
2022/09/14 11:22:37;;;;;;;2.20;1.23;;;26.20;1.00;;;;;;6244284;23;20032;-84
2022/09/14 11:25:59;;;;;;;3.55;1.50;;;26.00;1.00;;;;;;6244182;23;20024;-85
2022/09/14 11:28:51;;;;;;;7.23;1.50;;;25.90;1.00;;;;;;6241732;23;20119;-86
2022/09/14 11:31:58;;;;;;;4.43;1.38;;;25.80;1.00;;;;;;6245136;23;20424;-86
2022/09/14 11:35:08;;;;;;;3.03;1.55;;;25.30;1.00;;;;;;6230117;23;20031;-86
2022/09/14 11:38:00;;;;;;;4.88;1.73;;;24.80;1.00;;;;;;6222326;23;20432;-87
2022/09/14 11:41:08;;;;;;;3.33;1.63;;;24.60;1.00;;;;;;6246626;23;20032;-87
2022/09/14 11:44:09;;;;;;;7.10;1.67;;;24.70;1.00;;;;;;6226032;23;20034;-88
2022/09/14 11:47:16;;;;;;;5.78;1.73;;;24.60;1.00;;;;;;6224523;23;20530;-88
2022/09/14 11:50:24;;;;;;;4.90;1.55;;;24.70;1.00;;;;;;6244279;23;20024;-84
2022/09/14 11:53:24;;;;;;;5.25;1.60;;;24.80;1.00;;;;;;6244687;23;20131;-88
2022/09/14 11:56:25;;;;;;;7.47;2.00;;;24.60;1.00;;;;;;6230425;23;20024;-89
2022/09/14 11:59:34;;;;;;;3.53;1.83;;;24.40;1.00;;;;;;6250504;23;20032;-87
2022/09/14 12:02:24;;;;;;;5.07;2.08;;;24.30;1.00;;;;;;6244550;23;20024;-87
2022/09/14 12:05:11;;;;;;;5.53;2.00;;;24.30;6.80;;;;;;6225373;23;20147;-90
2022/09/14 12:08:01;;;;;;;4.82;1.88;;;24.10;8.90;;;;;;6226434;23;20078;-87
2022/09/14 12:11:25;;;;;;;6.50;1.80;;;24.10;13.40;;;;;;6224533;23;20082;-87
2022/09/14 12:14:34;;;;;;;4.03;1.65;;;24.10;16.20;;;;;;6168241;23;20127;-87
2022/09/14 12:17:31;;;;;;;5.72;1.90;;;24.00;12.50;;;;;;6228530;23;20020;-84
2022/09/14 12:20:51;;;;;;;4.25;2.00;;;23.30;29.50;;;;;;6227383;23;20020;-87
2022/09/14 12:23:40;;;;;;;7.05;2.53;;;22.70;91.90;;;;;;6247053;23;20102;-86
2022/09/14 12:26:33;;;;;;;4.60;2.75;;;22.20;99.90;;;;;;6225598;23;20035;-86
2022/09/14 12:29:30;;;;;;;8.18;2.85;;;21.80;99.90;;;;;;6245478;23;20099;-87
2022/09/14 12:32:42;;;;;;;6.25;2.38;;;21.60;99.90;;;;;;6225861;23;20111;-88
2022/09/14 12:35:38;;;;;;;6.05;3.00;;;21.60;99.90;;;;;;6225782;23;20043;-89
2022/09/14 12:38:29;;;;;;;5.88;3.50;;;21.50;99.90;;;;;;6226129;23;20074;-88
2022/09/14 12:41:17;;;;;;;7.50;3.65;;;21.20;99.90;;;;;;6245492;23;20147;-87
2022/09/14 12:44:27;;;;;;;6.10;3.35;;;20.70;99.90;;;;;;6225876;23;20087;-87
2022/09/14 12:47:24;;;;;;;7.65;3.60;;;20.30;1.00;;;;;;6224694;23;20103;-89
2022/09/14 12:50:19;;;;;;;6.13;3.80;;;20.10;1.00;;;;;;6248009;23;20024;-88
2022/09/14 12:53:29;;;;;;;6.72;3.25;;;20.00;40.80;;;;;;6249554;23;20103;-88
2022/09/14 12:56:52;;;;;;;5.30;3.22;;;19.90;32.70;;;;;;6206822;23;20024;-85
2022/09/14 13:00:16;;;;;;;7.47;3.40;;;19.80;59.20;;;;;;6226115;23;20391;-88
2022/09/14 13:03:40;;;;;;;6.55;3.53;;;19.70;99.90;;;;;;6246429;23;20292;-87
2022/09/14 13:06:43;;;;;;;10.75;4.68;;;19.60;99.90;;;;;;6246530;23;20028;-88
2022/09/14 13:09:31;;;;;;;9.10;4.88;;;19.40;99.90;;;;;;6248155;23;20024;-87
2022/09/14 13:12:33;;;;;;;8.90;4.65;;;19.40;1.00;;;;;;6248593;23;20356;-87
2022/09/14 13:15:48;;;;;;;8.63;4.05;;;19.30;1.00;;;;;;6225716;23;20094;-87
2022/09/14 13:18:37;;;;;;;4.40;3.30;;;19.20;1.00;;;;;;6225011;23;20098;-88
2022/09/14 13:21:24;;;;;;;5.50;3.03;;;19.10;1.00;;;;;;6225739;23;20025;-88
2022/09/14 13:24:37;;;;;;;9.80;3.10;;;19.10;92.50;;;;;;6226058;23;20276;-88
2022/09/14 13:27:37;;;;;;;6.45;3.05;;;19.00;27.30;;;;;;6227777;23;20071;-88
2022/09/14 13:30:28;;;;;;;7.28;3.28;;;19.00;1.00;;;;;;6227280;23;20028;-90
2022/09/14 13:33:19;;;;;;;6.25;3.20;;;19.00;15.10;;;;;;6248770;23;20454;-90
2022/09/14 13:36:06;;;;;;;4.22;2.88;;;18.90;57.20;;;;;;6225190;23;20024;-86
2022/09/14 13:39:00;;;;;;;7.53;3.22;;;18.90;99.90;;;;;;6246456;23;20099;-87
2022/09/14 13:41:50;;;;;;;5.20;2.97;;;19.00;99.90;;;;;;6224595;23;20023;-88
2022/09/14 13:44:48;;;;;;;5.68;3.03;;;19.00;99.90;;;;;;6247937;22;20024;-90
2022/09/14 13:47:42;;;;;;;9.23;3.78;;;19.00;99.90;;;;;;6227828;23;20411;-87
2022/09/14 13:50:32;;;;;;;17.23;3.00;;;18.90;99.90;;;;;;6245279;23;20024;-89
2022/09/14 13:53:39;;;;;;;4.13;2.20;;;18.80;99.90;;;;;;6246343;23;20083;-86
2022/09/14 13:56:32;;;;;;;4.82;1.92;;;18.80;99.90;;;;;;6225620;23;20043;-89
2022/09/14 13:59:23;;;;;;;5.43;2.42;;;18.70;21.50;;;;;;6226164;23;20086;-87
2022/09/14 14:02:12;;;;;;;3.65;1.83;;;18.80;1.00;;;;;;6225365;23;20027;-85
2022/09/14 14:05:00;;;;;;;2.88;1.70;;;18.80;1.00;;;;;;6225260;23;20024;-86
2022/09/14 14:07:47;;;;;;;2.35;1.70;;;18.90;1.00;;;;;;6245993;23;20099;-87
2022/09/14 14:10:39;;;;;;;2.83;1.88;;;18.90;1.00;;;;;;6248198;23;20020;-86
2022/09/14 14:13:30;;;;;;;2.67;1.60;;;19.00;1.00;;;;;;6248747;23;20066;-89
2022/09/14 14:16:37;;;;;;;;;;;;;;;;;;;;;
2022/09/14 14:19:36;;;;;;;4.07;1.27;;;19.10;99.90;;;;;;6250655;23;20035;-89
2022/09/14 14:22:34;;;;;;;2.47;1.30;;;19.10;99.90;;;;;;6210926;23;20445;-89
2022/09/14 14:25:40;;;;;;;3.28;1.20;;;19.00;99.90;;;;;;6218638;23;20068;-88
2022/09/14 14:28:32;;;;;;;1.00;1.00;;;19.00;99.90;;;;;;6252768;23;20083;-90
2022/09/14 14:31:25;;;;;;;1.77;1.02;;;19.00;99.90;;;;;;6263142;22;20024;-87
2022/09/14 14:34:23;;;;;;;1.33;1.00;;;18.90;99.90;;;;;;6269018;23;20035;-89
2022/09/14 14:37:12;;;;;;;2.10;1.40;;;18.80;99.90;;;;;;6249182;23;20055;-87
2022/09/14 14:39:59;;;;;;;1.40;1.20;;;18.70;99.90;;;;;;6263085;23;20024;-88
2022/09/14 14:42:48;;;;;;;5.03;1.40;;;18.50;99.90;;;;;;6263092;23;20024;-89
2022/09/14 14:45:37;;;;;;;5.00;2.35;;;18.40;99.90;;;;;;6245354;23;20008;-87
2022/09/14 14:48:26;;;;;;;3.33;1.27;;;18.30;1.00;;;;;;6273243;22;20012;-86
2022/09/14 14:51:14;;;;;;;2.55;1.42;;;18.10;1.00;;;;;;6271573;22;20016;-87
2022/09/14 14:54:01;;;;;;;2.42;1.38;;;18.10;1.00;;;;;;6272420;22;20042;-86
2022/09/14 14:56:50;;;;;;;4.13;2.00;;;18.00;1.00;;;;;;6270142;22;20020;-86
2022/09/14 14:59:38;;;;;;;2.92;1.35;;;17.90;1.00;;;;;;6267906;23;20020;-88
2022/09/14 15:02:25;;;;;;;1.70;1.00;;;17.80;1.00;;;;;;6266097;23;20031;-90
2022/09/14 15:05:13;;;;;;;3.33;1.33;;;17.70;43.70;;;;;;6264342;23;20028;-87
2022/09/14 15:08:02;;;;;;;3.85;1.58;;;17.60;33.00;;;;;;6261578;23;20020;-88